createdAt,value
2019-02-07T00:01:43.321Z,15.13
2019-02-07T00:04:13.477Z,15.10
2019-02-07T00:06:46.114Z,14.57
2019-02-07T00:09:17.161Z,14.77
2019-02-07T00:11:49.296Z,14.40
2019-02-07T00:14:22.149Z,14.83
2019-02-07T00:16:52.098Z,14.63
2019-02-07T00:19:22.737Z,13.97
2019-02-07T00:21:53.342Z,15.13
2019-02-07T00:24:24.447Z,14.47
2019-02-07T00:26:54.653Z,14.57
2019-02-07T00:29:25.777Z,14.33
2019-02-07T00:31:57.341Z,14.67
2019-02-07T00:34:30.071Z,14.17
2019-02-07T00:37:02.665Z,14.90
2019-02-07T00:39:34.411Z,14.20
2019-02-07T00:42:04.603Z,14.77
2019-02-07T00:44:35.469Z,13.53
2019-02-07T00:47:07.125Z,15.00
2019-02-07T00:49:37.600Z,14.07
2019-02-07T00:52:08.721Z,14.50
2019-02-07T00:54:40.605Z,13.23
2019-02-07T00:57:11.398Z,13.67
2019-02-07T00:59:42.182Z,14.07
2019-02-07T01:02:12.449Z,13.93
2019-02-07T01:04:42.641Z,14.83
2019-02-07T01:07:14.639Z,14.23
2019-02-07T01:09:45.557Z,14.47
2019-02-07T01:12:18.278Z,13.90
2019-02-07T01:14:49.478Z,14.30
2019-02-07T01:17:20.719Z,14.77
2019-02-07T01:19:51.383Z,14.47
2019-02-07T01:22:21.547Z,14.07
2019-02-07T01:24:51.441Z,14.00
2019-02-07T01:27:22.152Z,14.17
2019-02-07T01:29:53.321Z,14.30
2019-02-07T01:32:24.443Z,13.80
2019-02-07T01:34:54.704Z,13.77
2019-02-07T01:37:25.843Z,14.60
2019-02-07T01:39:56.039Z,14.77
2019-02-07T01:42:28.373Z,13.63
2019-02-07T01:44:58.637Z,14.00
2019-02-07T01:47:30.547Z,13.97
2019-02-07T01:50:01.342Z,11.57
2019-02-07T01:52:34.708Z,13.60
2019-02-07T01:55:06.316Z,13.57
2019-02-07T01:57:39.022Z,13.33
2019-02-07T02:00:12.117Z,13.40
2019-02-07T02:02:41.933Z,13.60
2019-02-07T02:05:13.797Z,13.67
2019-02-07T02:07:45.855Z,27.80
2019-02-07T02:10:25.205Z,14.33
2019-02-07T02:12:57.354Z,13.17
2019-02-07T02:15:28.112Z,12.50
2019-02-07T02:17:58.183Z,13.30
2019-02-07T02:20:28.362Z,12.97
2019-02-07T02:22:59.381Z,13.07
2019-02-07T02:25:29.506Z,12.10
2019-02-07T02:28:01.746Z,12.87
2019-02-07T02:30:33.727Z,12.53
2019-02-07T02:33:08.332Z,13.43
2019-02-07T02:35:39.469Z,13.50
2019-02-07T02:38:11.528Z,12.37
2019-02-07T02:40:41.421Z,13.77
2019-02-07T02:43:11.197Z,13.23
2019-02-07T02:45:41.408Z,15.23
2019-02-07T02:48:13.289Z,13.73
2019-02-07T02:50:43.146Z,13.97
2019-02-07T02:53:15.868Z,13.67
2019-02-07T02:55:46.765Z,14.10
2019-02-07T02:58:16.498Z,13.90
2019-02-07T03:00:49.266Z,14.10
2019-02-07T03:03:21.126Z,12.00
2019-02-07T03:06:10.757Z,13.40
2019-02-07T03:08:46.670Z,14.53
2019-02-07T03:11:35.444Z,14.30
2019-02-07T03:14:13.711Z,14.13
2019-02-07T03:16:58.551Z,14.03
2019-02-07T03:19:30.394Z,13.23
2019-02-07T03:22:17.215Z,15.07
2019-02-07T03:25:06.724Z,14.63
2019-02-07T03:27:55.098Z,13.90
2019-02-07T03:30:42.535Z,14.40
2019-02-07T03:33:19.807Z,14.20
2019-02-07T03:35:55.333Z,13.63
2019-02-07T03:38:35.978Z,14.43
2019-02-07T03:41:17.289Z,12.73
2019-02-07T03:43:49.573Z,13.37
2019-02-07T03:46:21.110Z,13.60
2019-02-07T03:48:52.259Z,13.67
2019-02-07T03:51:38.440Z,14.17
2019-02-07T03:54:26.378Z,13.13
2019-02-07T03:56:58.967Z,14.10
2019-02-07T03:59:41.834Z,12.73
2019-02-07T04:02:23.102Z,14.00
2019-02-07T04:05:00.669Z,13.50
2019-02-07T04:07:32.603Z,14.97
2019-02-07T04:10:06.850Z,15.77
2019-02-07T04:12:41.715Z,13.47
2019-02-07T04:15:30.081Z,13.27
2019-02-07T04:18:02.317Z,12.87
2019-02-07T04:20:36.638Z,12.70
2019-02-07T04:23:08.100Z,13.20
2019-02-07T04:25:40.774Z,14.03
2019-02-07T04:28:14.994Z,12.83
2019-02-07T04:31:05.212Z,13.20
2019-02-07T04:33:56.501Z,12.30
2019-02-07T04:36:40.811Z,13.17
2019-02-07T04:39:25.345Z,13.43
2019-02-07T04:42:05.833Z,13.60
2019-02-07T04:44:45.971Z,12.60
2019-02-07T04:47:18.288Z,12.93
2019-02-07T04:49:58.187Z,12.50
2019-02-07T04:52:29.570Z,12.73
2019-02-07T04:55:16.219Z,12.63
2019-02-07T04:58:03.841Z,13.30
2019-02-07T05:00:45.660Z,12.63
2019-02-07T05:03:27.937Z,12.27
2019-02-07T05:06:08.785Z,12.10
2019-02-07T05:08:46.112Z,12.80
2019-02-07T05:11:33.986Z,12.20
2019-02-07T05:14:05.749Z,11.80
2019-02-07T05:16:54.325Z,12.40
2019-02-07T05:19:41.937Z,11.93
2019-02-07T05:22:13.388Z,11.60
2019-02-07T05:24:53.776Z,12.30
2019-02-07T05:27:28.098Z,10.97
2019-02-07T05:30:09.585Z,11.37
2019-02-07T05:32:58.973Z,16.73
2019-02-07T05:35:47.853Z,12.63
2019-02-07T05:38:24.322Z,11.00
2019-02-07T05:41:02.709Z,11.60
2019-02-07T05:43:53.301Z,12.03
2019-02-07T05:46:50.698Z,11.00
2019-02-07T05:49:18.097Z,11.50
2019-02-07T05:52:12.634Z,12.00
2019-02-07T05:54:44.165Z,11.40
2019-02-07T05:57:22.385Z,11.70
2019-02-07T05:59:53.902Z,11.60
2019-02-07T06:02:42.463Z,12.13
2019-02-07T06:05:32.074Z,11.77
2019-02-07T06:08:15.859Z,11.90
2019-02-07T06:10:54.513Z,10.67
2019-02-07T06:13:43.405Z,12.63
2019-02-07T06:16:28.290Z,11.80
2019-02-07T06:19:18.951Z,11.80
2019-02-07T06:22:00.485Z,11.40
2019-02-07T06:24:32.840Z,11.50
2019-02-07T06:27:04.304Z,11.43
2019-02-07T06:29:51.195Z,11.10
2019-02-07T06:32:23.622Z,12.03
2019-02-07T06:35:08.757Z,11.33
2019-02-07T06:37:41.670Z,10.77
2019-02-07T06:40:29.312Z,11.30
2019-02-07T06:43:00.618Z,10.97
2019-02-07T06:45:38.218Z,11.60
2019-02-07T06:48:15.212Z,15.80
2019-02-07T06:50:58.069Z,12.03
2019-02-07T06:53:45.517Z,11.23
2019-02-07T06:56:17.191Z,11.87
2019-02-07T06:58:49.673Z,12.07
2019-02-07T07:01:26.737Z,10.77
2019-02-07T07:04:15.618Z,11.70
2019-02-07T07:06:56.193Z,11.70
2019-02-07T07:09:42.237Z,11.60
2019-02-07T07:12:17.163Z,11.73
2019-02-07T07:14:51.538Z,12.20
2019-02-07T07:17:26.457Z,11.50
2019-02-07T07:20:17.418Z,12.03
2019-02-07T07:23:05.049Z,12.30
2019-02-07T07:25:40.461Z,12.73
2019-02-07T07:28:18.883Z,12.53
2019-02-07T07:30:54.435Z,12.67
2019-02-07T07:33:43.614Z,12.70
2019-02-07T07:36:28.044Z,13.37
2019-02-07T07:39:01.251Z,13.23
2019-02-07T07:41:50.895Z,13.20
2019-02-07T07:44:39.768Z,12.53
2019-02-07T07:47:17.481Z,13.27
2019-02-07T07:49:59.405Z,12.93
2019-02-07T07:52:37.721Z,12.60
2019-02-07T07:55:09.693Z,12.73
2019-02-07T07:57:57.143Z,15.30
2019-02-07T08:00:44.013Z,12.13
2019-02-07T08:03:24.229Z,12.50
2019-02-07T08:06:02.844Z,13.53
2019-02-07T08:08:50.510Z,12.30
2019-02-07T08:11:39.586Z,11.97
2019-02-07T08:14:13.934Z,12.27
2019-02-07T08:17:03.692Z,11.63
2019-02-07T08:19:35.609Z,11.27
2019-02-07T08:22:19.312Z,12.67
2019-02-07T08:24:51.054Z,12.83
2019-02-07T08:27:39.132Z,12.80
2019-02-07T08:30:15.737Z,11.77
2019-02-07T08:33:02.173Z,12.63
2019-02-07T08:35:43.034Z,11.63
2019-02-07T08:38:29.841Z,11.97
2019-02-07T08:41:20.441Z,11.80
2019-02-07T08:44:00.426Z,11.37
2019-02-07T08:46:31.822Z,12.33
2019-02-07T08:49:03.094Z,10.40
2019-02-07T08:51:51.931Z,9.73
2019-02-07T08:54:30.179Z,10.40
2019-02-07T08:57:13.525Z,10.50
2019-02-07T08:59:54.130Z,9.50
2019-02-07T09:02:31.339Z,9.40
2019-02-07T09:05:21.979Z,8.57
2019-02-07T09:07:54.838Z,8.87
2019-02-07T09:10:28.456Z,6.90
2019-02-07T09:13:10.050Z,4.50
2019-02-07T09:15:42.202Z,3.50
2019-02-07T09:18:14.391Z,3.00
2019-02-07T09:21:02.258Z,3.20
2019-02-07T09:23:43.948Z,3.27
2019-02-07T09:26:33.480Z,3.17
2019-02-07T09:29:06.149Z,3.93
2019-02-07T09:31:40.105Z,4.20
2019-02-07T09:34:29.332Z,3.43
2019-02-07T09:37:16.715Z,3.80
2019-02-07T09:39:49.132Z,3.30
2019-02-07T09:42:35.654Z,3.50
2019-02-07T09:45:26.689Z,3.60
2019-02-07T09:48:01.952Z,3.90
2019-02-07T09:50:52.508Z,4.33
2019-02-07T09:53:30.617Z,3.60
2019-02-07T09:56:02.285Z,4.17
2019-02-07T09:58:39.678Z,4.37
2019-02-07T10:01:11.021Z,4.13
2019-02-07T10:03:43.819Z,4.17
2019-02-07T10:06:30.867Z,4.50
2019-02-07T10:09:20.045Z,4.93
2019-02-07T10:11:51.918Z,4.57
2019-02-07T10:14:30.777Z,4.60
2019-02-07T10:17:12.496Z,4.13
2019-02-07T10:19:52.493Z,4.80
2019-02-07T10:22:27.707Z,5.10
2019-02-07T10:25:00.376Z,4.47
2019-02-07T10:27:39.801Z,4.60
2019-02-07T10:30:27.134Z,5.23
2019-02-07T10:33:07.342Z,4.67
2019-02-07T10:35:44.018Z,4.93
2019-02-07T10:38:23.951Z,4.33
2019-02-07T10:40:58.215Z,4.30
2019-02-07T10:43:29.583Z,4.10
2019-02-07T10:46:21.489Z,4.27
2019-02-07T10:48:56.183Z,4.57
2019-02-07T10:51:34.689Z,4.47
2019-02-07T10:54:17.101Z,4.53
2019-02-07T10:57:00.809Z,5.10
2019-02-07T10:59:40.998Z,4.30
2019-02-07T11:02:30.469Z,4.27
2019-02-07T11:05:18.377Z,5.03
2019-02-07T11:08:08.978Z,4.20
2019-02-07T11:10:40.721Z,4.53
2019-02-07T11:13:28.647Z,4.93
2019-02-07T11:16:15.877Z,4.20
2019-02-07T11:18:59.250Z,4.70
2019-02-07T11:21:32.282Z,4.43
2019-02-07T11:24:16.453Z,5.03
2019-02-07T11:27:00.975Z,5.73
2019-02-07T11:29:41.382Z,4.40
2019-02-07T11:32:26.562Z,4.40
2019-02-07T11:35:03.753Z,4.67
2019-02-07T11:37:50.784Z,4.57
2019-02-07T11:40:37.238Z,4.37
2019-02-07T11:43:14.137Z,4.60
2019-02-07T11:45:51.601Z,4.70
2019-02-07T11:48:24.413Z,4.10
2019-02-07T11:50:55.956Z,4.13
2019-02-07T11:53:28.187Z,3.83
2019-02-07T11:56:18.858Z,4.70
2019-02-07T11:59:03.542Z,4.47
2019-02-07T12:01:41.358Z,4.20
2019-02-07T12:04:30.890Z,4.30
2019-02-07T12:07:18.941Z,4.27
2019-02-07T12:10:08.132Z,4.67
2019-02-07T12:12:55.592Z,4.73
2019-02-07T12:15:27.298Z,4.17
2019-02-07T12:18:04.460Z,3.77
2019-02-07T12:20:38.897Z,4.50
2019-02-07T12:23:13.957Z,4.57
2019-02-07T12:25:55.413Z,4.17
2019-02-07T12:28:28.646Z,3.53
2019-02-07T12:31:19.214Z,4.03
2019-02-07T12:33:56.382Z,3.73
2019-02-07T12:36:30.768Z,4.27
2019-02-07T12:39:05.776Z,4.50
2019-02-07T12:41:43.902Z,3.47
2019-02-07T12:44:35.790Z,4.20
2019-02-07T12:47:23.693Z,4.53
2019-02-07T12:49:55.045Z,3.67
2019-02-07T12:52:32.929Z,3.50
2019-02-07T12:55:05.679Z,3.50
2019-02-07T12:57:45.968Z,3.67
2019-02-07T13:00:37.289Z,4.13
2019-02-07T13:03:10.182Z,3.77
2019-02-07T13:05:43.581Z,4.70
2019-02-07T13:08:16.021Z,3.30
2019-02-07T13:10:53.236Z,3.93
2019-02-07T13:13:24.871Z,3.33
2019-02-07T13:16:13.111Z,3.50
2019-02-07T13:19:02.746Z,3.67
2019-02-07T13:21:47.494Z,3.87
2019-02-07T13:24:36.374Z,3.00
2019-02-07T13:27:15.610Z,3.57
2019-02-07T13:30:03.040Z,3.07
2019-02-07T13:32:37.236Z,3.30
2019-02-07T13:35:26.760Z,4.00
2019-02-07T13:38:07.939Z,3.60
2019-02-07T13:40:43.657Z,3.50
2019-02-07T13:43:15.956Z,5.03
2019-02-07T13:45:57.455Z,3.90
2019-02-07T13:48:29.743Z,3.70
2019-02-07T13:51:11.098Z,3.50
2019-02-07T13:53:54.142Z,3.10
2019-02-07T13:56:26.530Z,3.03
2019-02-07T13:59:05.073Z,2.93
2019-02-07T14:01:37.537Z,3.10
2019-02-07T14:04:14.997Z,3.20
2019-02-07T14:06:56.144Z,3.40
2019-02-07T14:09:28.836Z,3.17
2019-02-07T14:12:01.305Z,3.40
2019-02-07T14:14:37.907Z,2.97
2019-02-07T14:17:11.721Z,3.43
2019-02-07T14:19:47.827Z,3.83
2019-02-07T14:22:32.314Z,3.17
2019-02-07T14:25:06.766Z,4.00
2019-02-07T14:27:39.342Z,3.03
2019-02-07T14:30:26.926Z,3.27
2019-02-07T14:33:02.036Z,4.00
2019-02-07T14:35:44.961Z,3.23
2019-02-07T14:38:33.972Z,3.50
2019-02-07T14:41:05.330Z,3.60
2019-02-07T14:43:46.990Z,2.73
2019-02-07T14:46:36.278Z,2.53
2019-02-07T14:49:08.813Z,2.77
2019-02-07T14:51:38.697Z,2.53
2019-02-07T14:54:08.441Z,2.73
2019-02-07T14:56:39.107Z,3.13
2019-02-07T14:59:11.147Z,2.90
2019-02-07T15:01:42.892Z,3.57
2019-02-07T15:04:15.216Z,3.47
2019-02-07T15:06:45.893Z,3.20
2019-02-07T15:09:15.981Z,3.53
2019-02-07T15:11:47.246Z,3.20
2019-02-07T15:14:17.933Z,3.80
2019-02-07T15:16:48.598Z,3.43
2019-02-07T15:19:18.345Z,3.03
2019-02-07T15:21:50.455Z,7.40
2019-02-07T15:24:20.552Z,3.30
2019-02-07T15:26:50.707Z,3.20
2019-02-07T15:29:21.864Z,3.13
2019-02-07T15:31:51.738Z,3.07
2019-02-07T15:34:23.054Z,3.17
2019-02-07T15:36:54.298Z,3.57
2019-02-07T15:39:25.132Z,3.07
2019-02-07T15:41:56.577Z,3.80
2019-02-07T15:44:27.326Z,3.73
2019-02-07T15:46:57.954Z,3.40
2019-02-07T15:49:28.886Z,3.93
2019-02-07T15:51:59.601Z,3.80
2019-02-07T15:54:30.289Z,4.20
2019-02-07T15:57:01.775Z,3.90
2019-02-07T15:59:34.362Z,3.47
2019-02-07T16:02:06.514Z,3.50
2019-02-07T16:04:36.409Z,3.67
2019-02-07T16:07:08.261Z,2.87
2019-02-07T16:09:38.157Z,2.50
2019-02-07T16:12:09.930Z,3.50
2019-02-07T16:14:39.733Z,2.87
2019-02-07T16:17:09.997Z,3.17
2019-02-07T16:19:42.105Z,2.90
2019-02-07T16:22:13.227Z,2.60
2019-02-07T16:24:43.961Z,2.67
2019-02-07T16:27:13.717Z,3.80
2019-02-07T16:29:44.457Z,3.10
2019-02-07T16:32:15.797Z,2.97
2019-02-07T16:34:47.002Z,2.70
2019-02-07T16:37:20.629Z,3.07
2019-02-07T16:39:52.025Z,7.50
2019-02-07T16:42:22.926Z,2.93
2019-02-07T16:44:54.519Z,3.17
2019-02-07T16:47:25.206Z,3.30
2019-02-07T16:49:55.957Z,3.80
2019-02-07T16:52:26.674Z,3.27
2019-02-07T16:54:57.866Z,3.53
2019-02-07T16:57:27.793Z,3.73
2019-02-07T16:59:58.413Z,3.77
2019-02-07T17:02:28.785Z,3.80
2019-02-07T17:04:59.607Z,3.10
2019-02-07T17:07:29.706Z,3.13
2019-02-07T17:10:00.537Z,4.17
2019-02-07T17:12:31.245Z,5.53
2019-02-07T17:15:03.518Z,6.03
2019-02-07T17:17:33.409Z,5.70
2019-02-07T17:20:03.205Z,4.10
2019-02-07T17:22:34.945Z,3.33
2019-02-07T17:25:07.161Z,3.20
2019-02-07T17:27:38.378Z,3.80
2019-02-07T17:30:17.681Z,3.60
2019-02-07T17:32:49.877Z,2.83
2019-02-07T17:35:21.422Z,3.23
2019-02-07T17:37:51.297Z,2.87
2019-02-07T17:40:23.604Z,2.80
2019-02-07T17:42:56.390Z,2.70
2019-02-07T17:45:27.828Z,2.60
2019-02-07T17:47:58.051Z,2.50
2019-02-07T17:50:32.902Z,3.17
2019-02-07T17:53:08.541Z,3.07
2019-02-07T17:55:40.325Z,2.90
2019-02-07T17:58:12.612Z,4.40
2019-02-07T18:00:57.530Z,2.97
2019-02-07T18:03:29.292Z,2.90
2019-02-07T18:06:00.005Z,3.30
2019-02-07T18:08:32.081Z,3.30
2019-02-07T18:11:02.799Z,3.57
2019-02-07T18:13:35.282Z,3.83
2019-02-07T18:16:05.493Z,2.90
2019-02-07T18:18:35.291Z,2.60
2019-02-07T18:21:06.829Z,2.83
2019-02-07T18:23:37.947Z,3.07
2019-02-07T18:26:10.578Z,3.13
2019-02-07T18:28:43.398Z,3.93
2019-02-07T18:31:14.545Z,2.70
2019-02-07T18:33:46.301Z,3.23
2019-02-07T18:36:16.470Z,3.20
2019-02-07T18:38:48.037Z,3.17
2019-02-07T18:41:18.769Z,2.93
2019-02-07T18:43:50.499Z,3.10
2019-02-07T18:46:22.903Z,3.60
2019-02-07T18:48:54.501Z,3.63
2019-02-07T18:51:24.453Z,3.50
2019-02-07T18:53:56.883Z,3.33
2019-02-07T18:56:26.510Z,2.90
2019-02-07T18:58:56.699Z,3.73
2019-02-07T19:01:30.614Z,3.50
2019-02-07T19:04:01.522Z,2.80
2019-02-07T19:06:33.471Z,2.80
2019-02-07T19:09:04.518Z,2.60
2019-02-07T19:11:36.845Z,2.87
2019-02-07T19:14:08.358Z,2.73
2019-02-07T19:16:40.859Z,2.60
2019-02-07T19:19:13.545Z,2.60
2019-02-07T19:21:44.757Z,2.77
2019-02-07T19:24:18.354Z,3.50
2019-02-07T19:26:48.300Z,3.60
2019-02-07T19:29:20.085Z,3.63
2019-02-07T19:31:51.013Z,3.40
2019-02-07T19:34:22.738Z,2.70
2019-02-07T19:36:52.897Z,3.20
2019-02-07T19:39:22.621Z,2.70
2019-02-07T19:41:54.410Z,2.70
2019-02-07T19:44:27.846Z,3.10
2019-02-07T19:46:57.601Z,2.70
2019-02-07T19:49:28.313Z,2.97
2019-02-07T19:52:07.913Z,2.50
2019-02-07T19:54:30.490Z,2.50
2019-02-07T19:57:01.094Z,2.60
2019-02-07T19:59:33.581Z,2.70
2019-02-07T20:02:04.549Z,2.83
2019-02-07T20:04:35.238Z,3.07
2019-02-07T20:07:06.792Z,3.37
2019-02-07T20:09:36.589Z,3.00
2019-02-07T20:12:06.404Z,3.13
2019-02-07T20:14:37.108Z,3.30
2019-02-07T20:17:09.026Z,3.40
2019-02-07T20:19:44.373Z,3.90
2019-02-07T20:22:20.268Z,3.83
2019-02-07T20:24:47.237Z,4.17
2019-02-07T20:27:18.332Z,2.97
2019-02-07T20:29:49.221Z,3.70
2019-02-07T20:32:21.413Z,5.47
2019-02-07T20:34:52.571Z,3.00
2019-02-07T20:37:24.073Z,3.40
2019-02-07T20:39:56.658Z,6.17
2019-02-07T20:42:26.772Z,2.53
2019-02-07T20:44:56.672Z,3.13
2019-02-07T20:47:26.420Z,3.10
2019-02-07T20:49:58.765Z,2.80
2019-02-07T20:52:30.424Z,2.90
2019-02-07T20:55:01.036Z,3.03
2019-02-07T20:57:32.840Z,2.90
2019-02-07T21:00:04.135Z,2.90
2019-02-07T21:02:36.574Z,2.40
2019-02-07T21:05:10.150Z,2.80
2019-02-07T21:07:42.617Z,3.00
2019-02-07T21:10:13.412Z,2.97
2019-02-07T21:12:44.498Z,2.33
2019-02-07T21:15:18.789Z,2.70
2019-02-07T21:17:46.662Z,2.60
2019-02-07T21:20:21.963Z,2.87
2019-02-07T21:22:51.638Z,2.83
2019-02-07T21:25:23.837Z,3.07
2019-02-07T21:27:57.867Z,3.07
2019-02-07T21:30:32.739Z,6.10
2019-02-07T21:33:03.917Z,3.23
2019-02-07T21:35:35.005Z,3.20
2019-02-07T21:38:08.065Z,2.67
2019-02-07T21:40:39.638Z,3.13
2019-02-07T21:43:09.531Z,3.13
2019-02-07T21:45:41.181Z,3.23
2019-02-07T21:48:13.237Z,3.47
2019-02-07T21:50:43.972Z,3.37
2019-02-07T21:53:16.539Z,3.27
2019-02-07T21:55:48.915Z,3.67
2019-02-07T21:58:18.951Z,4.43
2019-02-07T22:00:48.623Z,3.33
2019-02-07T22:03:19.487Z,3.40
2019-02-07T22:05:49.549Z,3.67
2019-02-07T22:08:21.678Z,3.33
2019-02-07T22:10:52.374Z,3.20
2019-02-07T22:13:24.334Z,3.00
2019-02-07T22:15:54.281Z,3.27
2019-02-07T22:18:24.945Z,3.00
2019-02-07T22:20:55.642Z,3.73
2019-02-07T22:23:25.409Z,2.63
2019-02-07T22:25:55.412Z,2.73
2019-02-07T22:28:25.191Z,2.97
2019-02-07T22:30:54.962Z,2.50
2019-02-07T22:33:26.762Z,3.00
2019-02-07T22:35:57.750Z,2.83
2019-02-07T22:38:27.645Z,2.70
2019-02-07T22:43:48.093Z,2.50
2019-02-07T22:46:17.968Z,2.60
2019-02-07T22:48:49.018Z,3.07
2019-02-07T22:51:19.228Z,3.63
2019-02-07T22:53:49.005Z,2.80
2019-02-07T22:56:20.945Z,3.00
2019-02-07T22:58:51.925Z,3.93
2019-02-07T23:01:24.581Z,3.00
2019-02-07T23:03:54.581Z,2.70
2019-02-07T23:06:25.301Z,2.63
2019-02-07T23:08:55.933Z,2.67
2019-02-07T23:11:27.133Z,3.40
2019-02-07T23:13:58.822Z,2.77
2019-02-07T23:16:29.541Z,2.70
2019-02-07T23:19:01.085Z,2.80
2019-02-07T23:21:32.837Z,2.33
2019-02-07T23:24:02.967Z,2.90
2019-02-07T23:26:33.693Z,3.10
2019-02-07T23:29:03.757Z,3.50
2019-02-07T23:31:35.701Z,3.57
2019-02-07T23:34:07.460Z,2.80
2019-02-07T23:36:39.137Z,3.40
2019-02-07T23:39:09.372Z,3.20
2019-02-07T23:41:39.236Z,3.10
2019-02-07T23:44:09.487Z,2.93
2019-02-07T23:46:40.133Z,2.53
2019-02-07T23:49:09.352Z,2.50
2019-02-07T23:51:40.418Z,2.80
2019-02-07T23:54:12.186Z,2.40
2019-02-07T23:56:43.213Z,3.00
2019-02-07T23:59:15.202Z,2.33
